Time;durP1;ratioP1;P1;durP2;ratioP2;P2;SDS_P1;SDS_P2;PMS_P1;PMS_P2;Temp;Humidity;BMP_temperature;BMP_pressure;BME280_temperature;BME280_humidity;BME280_pressure;Samples;Min_cycle;Max_cycle;Signal;HPM_P1;HPM_P2
2022/09/25 04:01:39;;;;;;;40.73;28.93;;;14.20;99.90;;;;;;5399612;23;20503;-74
2022/09/25 04:04:06;;;;;;;39.47;27.90;;;14.20;99.90;;;;;;4908813;29;20463;-74
2022/09/25 04:06:33;;;;;;;41.63;30.10;;;14.20;99.90;;;;;;4909034;29;20455;-73
2022/09/25 04:09:00;;;;;;;42.87;28.53;;;14.20;99.90;;;;;;4909407;29;20474;-74
2022/09/25 04:11:27;;;;;;;40.50;28.10;;;14.10;99.90;;;;;;4899117;29;20491;-74
2022/09/25 04:13:55;;;;;;;39.83;27.83;;;14.10;99.90;;;;;;4890206;29;20559;-75
2022/09/25 04:16:22;;;;;;;34.67;26.20;;;14.10;99.90;;;;;;4890549;29;20464;-74
2022/09/25 04:18:50;;;;;;;39.63;27.07;;;14.00;99.90;;;;;;4888700;29;20498;-74
2022/09/25 04:21:17;;;;;;;41.70;27.03;;;13.90;99.90;;;;;;4890722;29;20570;-74
2022/09/25 04:24:47;;;;;;;37.73;26.90;;;13.90;99.90;;;;;;4890571;29;20464;-74
2022/09/25 04:26:32;;;;;;;38.13;27.83;;;13.90;99.90;;;;;;4890229;29;20551;-74
2022/09/25 04:29:00;;;;;;;40.90;27.33;;;13.90;99.90;;;;;;4888996;29;20967;-74
2022/09/25 04:31:27;;;;;;;39.23;26.87;;;13.90;99.90;;;;;;4890610;29;20596;-75
2022/09/25 04:33:54;;;;;;;41.83;27.40;;;13.90;99.90;;;;;;4890902;29;20460;-74
2022/09/25 04:36:21;;;;;;;42.60;28.80;;;13.80;99.90;;;;;;4889931;29;20466;-74
2022/09/25 04:38:48;;;;;;;39.83;28.63;;;13.80;99.90;;;;;;4890176;29;20492;-74
2022/09/25 04:41:16;;;;;;;46.50;30.57;;;13.70;99.90;;;;;;4890603;29;20476;-74
2022/09/25 04:43:43;;;;;;;42.00;29.37;;;13.70;99.90;;;;;;4890814;29;20467;-75
2022/09/25 04:46:12;;;;;;;42.77;28.90;;;13.70;99.90;;;;;;4890291;29;20471;-74
2022/09/25 04:48:39;;;;;;;43.90;29.27;;;13.70;99.90;;;;;;4890235;29;20464;-75
2022/09/25 04:51:07;;;;;;;47.73;31.60;;;13.80;99.90;;;;;;4890215;29;20504;-74
2022/09/25 04:53:35;;;;;;;40.10;27.23;;;13.80;99.90;;;;;;4890493;29;20618;-75
2022/09/25 04:56:04;;;;;;;45.53;30.90;;;13.80;99.90;;;;;;4889899;29;20460;-75
2022/09/25 04:58:31;;;;;;;44.03;30.30;;;13.80;99.90;;;;;;4890581;29;20475;-75
2022/09/25 05:01:02;;;;;;;45.73;31.60;;;13.80;99.90;;;;;;4890472;29;20491;-75
2022/09/25 05:03:29;;;;;;;42.43;29.27;;;13.90;99.90;;;;;;4890307;29;20922;-74
2022/09/25 05:05:56;;;;;;;42.67;28.67;;;13.80;99.90;;;;;;4889413;29;20500;-74
2022/09/25 05:08:24;;;;;;;45.07;30.77;;;13.80;99.90;;;;;;4890282;29;20460;-76
2022/09/25 05:10:51;;;;;;;45.87;31.20;;;13.80;99.90;;;;;;4890319;29;20514;-76
2022/09/25 05:13:18;;;;;;;43.73;29.87;;;13.80;99.90;;;;;;4890595;29;20476;-75
2022/09/25 05:15:45;;;;;;;47.27;32.03;;;13.80;99.90;;;;;;4890128;29;20496;-77
2022/09/25 05:18:15;;;;;;;40.20;28.37;;;13.80;99.90;;;;;;4890499;29;20471;-77
2022/09/25 05:20:42;;;;;;;45.20;29.93;;;13.80;99.90;;;;;;4890449;29;20567;-78
2022/09/25 05:23:09;;;;;;;63.03;33.37;;;13.80;99.90;;;;;;4889791;29;20961;-77
2022/09/25 05:25:37;;;;;;;46.13;32.40;;;13.70;99.90;;;;;;4889441;29;21159;-77
2022/09/25 05:28:04;;;;;;;54.47;32.33;;;13.70;99.90;;;;;;4890049;29;20610;-78
2022/09/25 05:30:33;;;;;;;46.60;32.20;;;13.70;99.90;;;;;;4889589;29;20511;-78
2022/09/25 05:33:00;;;;;;;46.73;31.90;;;13.70;99.90;;;;;;4888694;29;20613;-77
2022/09/25 05:35:28;;;;;;;44.43;30.10;;;13.70;99.90;;;;;;4889502;29;20444;-77
2022/09/25 05:37:55;;;;;;;43.00;30.60;;;13.70;99.90;;;;;;4890230;29;20468;-77
2022/09/25 05:40:23;;;;;;;42.60;31.03;;;13.70;99.90;;;;;;4889650;29;20461;-77
2022/09/25 05:42:53;;;;;;;46.00;31.60;;;13.80;99.90;;;;;;4889705;29;21166;-77
2022/09/25 05:45:22;;;;;;;47.90;31.40;;;13.70;99.90;;;;;;4889139;29;20464;-77
2022/09/25 05:47:48;;;;;;;48.23;31.00;;;13.70;99.90;;;;;;4890369;29;20818;-79
2022/09/25 05:50:16;;;;;;;46.83;30.50;;;13.60;99.90;;;;;;4892911;29;20495;-77
2022/09/25 05:52:43;;;;;;;48.73;31.03;;;13.70;99.90;;;;;;4893499;29;20468;-77
2022/09/25 05:55:11;;;;;;;43.43;29.90;;;13.60;99.90;;;;;;4892897;29;20464;-77
2022/09/25 05:57:38;;;;;;;43.60;29.70;;;13.70;99.90;;;;;;4893221;29;20474;-78
2022/09/25 06:00:11;;;;;;;40.43;27.93;;;13.70;99.90;;;;;;4893422;29;20471;-77
2022/09/25 06:02:38;;;;;;;40.90;26.30;;;13.70;99.90;;;;;;4893033;29;20483;-77
2022/09/25 06:05:05;;;;;;;42.43;28.93;;;13.80;99.90;;;;;;4892980;29;20460;-78
2022/09/25 06:07:31;;;;;;;42.97;28.67;;;13.80;99.90;;;;;;4894010;29;20459;-77
2022/09/25 06:09:58;;;;;;;40.60;27.30;;;13.80;99.90;;;;;;4893310;29;20500;-78
2022/09/25 06:12:25;;;;;;;41.33;27.83;;;13.80;99.90;;;;;;4893264;29;21004;-78
2022/09/25 06:14:52;;;;;;;39.40;27.70;;;13.90;99.90;;;;;;4895034;29;20543;-80
2022/09/25 06:17:20;;;;;;;38.40;26.67;;;13.90;99.90;;;;;;4895998;29;20456;-79
2022/09/25 06:19:48;;;;;;;38.13;27.60;;;13.90;99.90;;;;;;4894553;29;20461;-78
2022/09/25 06:22:14;;;;;;;38.00;27.47;;;14.00;99.90;;;;;;4892944;29;20997;-75
2022/09/25 06:24:41;;;;;;;37.50;25.73;;;13.90;99.90;;;;;;4893092;29;20964;-77
2022/09/25 06:27:09;;;;;;;39.28;27.83;;;13.90;99.90;;;;;;4892147;29;21251;-75
2022/09/25 06:29:36;;;;;;;36.47;27.50;;;14.10;99.90;;;;;;4892716;29;20227;-77
2022/09/25 06:32:04;;;;;;;33.97;23.50;;;14.10;99.90;;;;;;4892810;29;20507;-74
2022/09/25 06:34:32;;;;;;;37.07;25.70;;;14.10;99.90;;;;;;4892417;29;20468;-76
2022/09/25 06:37:00;;;;;;;35.27;26.27;;;14.10;99.90;;;;;;4892297;29;20468;-76
2022/09/25 06:39:27;;;;;;;40.30;27.73;;;14.00;99.90;;;;;;4892208;29;20464;-76
2022/09/25 06:41:53;;;;;;;38.83;27.30;;;13.90;99.90;;;;;;4891950;29;20491;-77
2022/09/25 06:44:21;;;;;;;41.60;27.47;;;13.90;99.90;;;;;;4891629;29;20969;-77
2022/09/25 06:46:49;;;;;;;40.90;28.03;;;13.90;99.90;;;;;;4892492;29;20495;-76
2022/09/25 06:49:16;;;;;;;43.37;28.97;;;13.90;99.90;;;;;;4892238;29;20460;-76
2022/09/25 06:51:44;;;;;;;44.50;28.90;;;13.90;99.90;;;;;;4891891;29;21020;-76
2022/09/25 06:54:11;;;;;;;39.27;27.80;;;13.80;99.90;;;;;;4891775;29;20532;-77
2022/09/25 06:56:38;;;;;;;44.10;28.53;;;13.80;99.90;;;;;;4892531;29;20467;-75
2022/09/25 06:59:05;;;;;;;44.27;29.60;;;13.80;99.90;;;;;;4891750;29;20913;-75
2022/09/25 07:01:31;;;;;;;48.47;29.97;;;13.80;99.90;;;;;;4890534;29;20495;-76
2022/09/25 07:03:57;;;;;;;53.57;30.00;;;13.80;99.90;;;;;;4891064;29;20860;-76
2022/09/25 07:06:27;;;;;;;48.20;29.90;;;13.80;99.90;;;;;;4891909;29;20460;-77
2022/09/25 07:08:56;;;;;;;43.97;29.07;;;13.80;99.90;;;;;;4893419;29;20230;-76
2022/09/25 07:11:24;;;;;;;43.80;29.23;;;13.80;99.90;;;;;;4892526;29;21008;-77
2022/09/25 07:13:53;;;;;;;44.30;28.97;;;13.80;99.90;;;;;;4891960;29;20459;-76
2022/09/25 07:16:22;;;;;;;42.63;28.67;;;13.80;99.90;;;;;;4891618;29;20977;-76
2022/09/25 07:18:50;;;;;;;38.33;26.27;;;13.80;99.90;;;;;;4893096;29;20476;-79
2022/09/25 07:21:18;;;;;;;39.77;26.40;;;13.90;99.90;;;;;;4892591;29;21196;-77
2022/09/25 07:23:47;;;;;;;42.03;26.07;;;13.90;99.90;;;;;;4892184;29;20838;-76
2022/09/25 07:26:21;;;;;;;37.00;24.63;;;14.00;99.90;;;;;;4891210;29;21086;-77
2022/09/25 07:28:50;;;;;;;37.47;25.27;;;13.90;99.90;;;;;;4892130;29;20451;-76
2022/09/25 07:31:36;;;;;;;34.53;23.37;;;13.90;99.90;;;;;;4892595;29;20897;-78
2022/09/25 07:34:07;;;;;;;32.57;23.47;;;13.90;99.90;;;;;;4891603;29;20468;-77
2022/09/25 07:36:37;;;;;;;35.30;24.13;;;13.90;99.90;;;;;;4893523;29;20468;-76
2022/09/25 07:39:04;;;;;;;31.67;23.47;;;13.90;99.90;;;;;;4892742;29;20464;-77
2022/09/25 07:41:33;;;;;;;31.37;23.73;;;13.80;99.90;;;;;;4892005;29;20471;-78
2022/09/25 07:43:59;;;;;;;27.93;20.57;;;13.80;99.90;;;;;;4891093;29;20811;-77
2022/09/25 07:46:30;;;;;;;30.20;22.27;;;13.80;99.90;;;;;;4891317;29;20460;-77
2022/09/25 07:48:59;;;;;;;30.90;22.10;;;13.80;99.90;;;;;;4891853;29;20449;-77
2022/09/25 07:51:26;;;;;;;34.10;23.27;;;13.80;99.90;;;;;;4890963;29;20522;-77
2022/09/25 07:53:53;;;;;;;29.20;21.30;;;13.80;99.90;;;;;;4891148;29;20983;-77
2022/09/25 07:56:20;;;;;;;31.67;23.63;;;13.80;99.90;;;;;;4890638;29;20829;-77
2022/09/25 07:58:48;;;;;;;30.03;22.93;;;13.90;99.90;;;;;;4890664;29;20463;-76
2022/09/25 08:01:14;;;;;;;30.53;20.67;;;13.90;99.90;;;;;;4892245;29;21023;-76
2022/09/25 08:03:41;;;;;;;31.10;21.80;;;14.00;99.90;;;;;;4893989;29;20482;-76
2022/09/25 08:06:12;;;;;;;29.00;20.37;;;14.00;99.90;;;;;;4891887;29;20471;-76
2022/09/25 08:08:40;;;;;;;27.63;21.53;;;14.00;99.90;;;;;;4891217;29;20463;-77
2022/09/25 08:11:10;;;;;;;29.17;22.57;;;14.00;99.90;;;;;;4890773;29;20506;-76
2022/09/25 08:13:37;;;;;;;27.43;20.57;;;14.10;99.90;;;;;;4891486;29;20495;-76
2022/09/25 08:16:07;;;;;;;26.90;18.47;;;14.10;99.90;;;;;;4890501;29;20472;-77
2022/09/25 08:18:34;;;;;;;27.10;21.10;;;14.10;99.90;;;;;;4891492;29;20535;-75
2022/09/25 08:21:02;;;;;;;25.50;19.07;;;14.10;99.90;;;;;;4890868;29;20495;-76
2022/09/25 08:23:29;;;;;;;25.40;18.67;;;14.20;99.90;;;;;;4890956;29;20972;-77
2022/09/25 08:25:56;;;;;;;28.27;19.13;;;14.20;99.90;;;;;;4890336;29;20464;-79
2022/09/25 08:28:23;;;;;;;24.63;18.17;;;14.20;99.90;;;;;;4891631;29;20486;-75
2022/09/25 08:30:49;;;;;;;26.40;17.60;;;14.10;99.90;;;;;;4891011;29;20504;-79
2022/09/25 08:33:18;;;;;;;23.90;18.30;;;14.10;99.90;;;;;;4891828;29;20481;-77
2022/09/25 08:35:54;;;;;;;19.83;16.13;;;14.20;99.90;;;;;;4891107;29;20480;-78
2022/09/25 08:38:21;;;;;;;23.33;16.60;;;14.20;99.90;;;;;;4901126;29;21046;-76
2022/09/25 08:40:53;;;;;;;18.57;14.97;;;14.20;99.90;;;;;;4910510;29;20511;-76
2022/09/25 08:43:23;;;;;;;21.27;15.23;;;14.30;99.90;;;;;;4910252;29;20482;-76
2022/09/25 08:51:27;;;;;;;19.90;15.67;;;14.50;99.90;;;;;;4909642;29;20570;-77
2022/09/25 08:53:54;;;;;;;18.00;14.13;;;14.40;99.90;;;;;;4910034;29;20467;-77
2022/09/25 08:56:27;;;;;;;18.00;14.10;;;14.40;99.90;;;;;;4909889;29;20474;-76
2022/09/25 08:58:59;;;;;;;17.93;13.90;;;14.30;99.90;;;;;;4909908;29;20485;-76
2022/09/25 09:01:28;;;;;;;20.57;15.30;;;14.30;99.90;;;;;;4909542;29;20487;-77
2022/09/25 09:04:04;;;;;;;20.23;14.93;;;14.20;99.90;;;;;;4908109;29;20463;-76
2022/09/25 09:06:33;;;;;;;18.93;14.43;;;14.20;99.90;;;;;;4905851;29;21360;-78
2022/09/25 09:09:06;;;;;;;22.17;16.10;;;14.20;99.90;;;;;;4900825;29;20480;-79
2022/09/25 09:11:36;;;;;;;17.20;13.50;;;14.20;99.90;;;;;;4899708;29;20487;-77
2022/09/25 09:14:06;;;;;;;24.37;14.87;;;14.10;99.90;;;;;;4905387;29;20455;-75
2022/09/25 09:16:39;;;;;;;17.07;13.03;;;14.10;99.90;;;;;;4898877;29;20455;-76
2022/09/25 09:19:09;;;;;;;18.53;13.03;;;14.10;99.90;;;;;;4900087;29;21031;-77
2022/09/25 09:21:38;;;;;;;15.97;13.07;;;14.10;99.90;;;;;;4899088;29;20479;-75
2022/09/25 09:24:15;;;;;;;15.80;12.60;;;14.10;99.90;;;;;;4901548;29;20464;-75
2022/09/25 09:26:57;;;;;;;14.97;12.87;;;14.10;99.90;;;;;;4903312;29;20463;-76
2022/09/25 09:29:37;;;;;;;17.70;13.20;;;14.20;99.90;;;;;;4902397;29;20484;-77
2022/09/25 09:32:25;;;;;;;19.57;15.00;;;14.20;99.90;;;;;;4902978;29;20495;-76
2022/09/25 09:35:04;;;;;;;19.23;14.37;;;14.20;99.90;;;;;;4899532;29;20905;-76
2022/09/25 09:37:41;;;;;;;21.10;14.40;;;14.20;99.90;;;;;;4898039;29;21403;-77
2022/09/25 09:40:22;;;;;;;20.63;14.40;;;14.30;99.90;;;;;;4902886;29;20455;-77
2022/09/25 09:42:58;;;;;;;19.97;16.00;;;14.30;99.90;;;;;;4899308;29;21366;-79
2022/09/25 09:45:32;;;;;;;22.13;16.47;;;14.40;99.90;;;;;;4905567;29;20492;-79
2022/09/25 09:48:06;;;;;;;22.53;15.57;;;14.40;99.90;;;;;;4908450;29;20458;-79
2022/09/25 09:50:41;;;;;;;22.03;15.30;;;14.50;99.90;;;;;;4911809;29;20482;-78
2022/09/25 09:53:17;;;;;;;20.63;15.67;;;14.50;99.90;;;;;;4912043;29;20463;-79
2022/09/25 09:55:47;;;;;;;19.80;14.83;;;14.60;99.90;;;;;;4912959;29;20466;-77
2022/09/25 09:58:18;;;;;;;19.30;14.40;;;14.70;99.90;;;;;;4915980;29;20470;-78
2022/09/25 10:00:47;;;;;;;20.10;14.60;;;14.70;99.90;;;;;;4915258;29;20566;-77
2022/09/25 10:03:19;;;;;;;19.40;14.53;;;14.70;99.90;;;;;;4914658;29;20471;-77
2022/09/25 10:05:49;;;;;;;25.27;14.23;;;14.70;99.90;;;;;;4914812;29;20448;-78
2022/09/25 10:08:16;;;;;;;19.83;14.13;;;14.60;99.90;;;;;;4913656;29;20462;-77
2022/09/25 10:10:46;;;;;;;18.63;14.90;;;14.60;99.90;;;;;;4912873;29;20516;-77
2022/09/25 10:13:18;;;;;;;18.63;13.17;;;14.60;99.90;;;;;;4914065;29;20586;-77
2022/09/25 10:15:50;;;;;;;19.07;14.40;;;14.60;99.90;;;;;;4915351;29;20558;-78
2022/09/25 10:18:18;;;;;;;20.70;15.50;;;14.60;99.90;;;;;;4916501;29;21019;-77
2022/09/25 10:20:51;;;;;;;22.23;15.43;;;14.60;99.90;;;;;;4915628;29;21039;-79
2022/09/25 10:23:31;;;;;;;20.10;16.10;;;14.60;99.90;;;;;;4917322;29;20469;-78
2022/09/25 10:25:58;;;;;;;21.23;16.90;;;14.60;99.90;;;;;;4922664;29;20452;-77
2022/09/25 10:28:31;;;;;;;20.23;15.60;;;14.60;99.90;;;;;;4918130;29;20459;-77
2022/09/25 10:30:58;;;;;;;21.60;16.20;;;14.70;99.90;;;;;;4918069;29;20246;-78
2022/09/25 10:33:27;;;;;;;19.47;15.07;;;14.70;99.90;;;;;;4914148;29;20472;-77
2022/09/25 10:35:56;;;;;;;22.60;15.63;;;14.70;99.90;;;;;;4920645;29;21072;-78
2022/09/25 10:38:34;;;;;;;21.20;16.10;;;14.70;99.90;;;;;;4915246;29;21432;-77
2022/09/25 10:41:05;;;;;;;21.03;15.83;;;14.80;99.90;;;;;;4908791;29;20294;-77
2022/09/25 10:43:32;;;;;;;22.27;16.30;;;14.90;99.90;;;;;;4913449;29;20460;-77
2022/09/25 10:46:08;;;;;;;20.30;15.90;;;14.90;99.90;;;;;;4915442;29;20466;-76
2022/09/25 10:51:23;;;;;;;19.50;15.60;;;14.90;99.90;;;;;;4917537;29;20617;-77
2022/09/25 10:53:51;;;;;;;19.50;15.77;;;14.90;99.90;;;;;;4918455;29;20459;-78
2022/09/25 10:56:21;;;;;;;25.90;18.40;;;14.80;99.90;;;;;;4917498;29;20463;-77
2022/09/25 10:58:53;;;;;;;20.93;15.70;;;14.80;99.90;;;;;;4914177;29;20473;-78
2022/09/25 11:01:22;;;;;;;19.10;15.70;;;14.80;99.90;;;;;;4911903;29;20503;-75
2022/09/25 11:03:54;;;;;;;19.93;15.10;;;14.80;99.90;;;;;;4913667;29;20498;-77
2022/09/25 11:06:26;;;;;;;21.70;15.30;;;14.80;99.90;;;;;;4912548;29;20924;-76
2022/09/25 11:09:07;;;;;;;25.27;16.10;;;14.80;99.90;;;;;;4913159;29;20488;-75
2022/09/25 11:11:35;;;;;;;18.50;14.20;;;14.80;99.90;;;;;;4915004;29;20582;-76
2022/09/25 11:14:04;;;;;;;22.93;14.40;;;14.90;99.90;;;;;;4916293;29;20522;-78
2022/09/25 11:16:52;;;;;;;18.80;13.60;;;14.90;99.90;;;;;;4915734;29;20956;-77
2022/09/25 11:19:27;;;;;;;22.73;14.10;;;14.90;99.90;;;;;;4911243;29;20478;-77
2022/09/25 11:22:19;;;;;;;21.67;14.33;;;14.90;99.90;;;;;;4910762;29;20514;-78
2022/09/25 11:24:59;;;;;;;19.57;13.70;;;14.80;99.90;;;;;;4909930;29;20463;-78
2022/09/25 11:27:31;;;;;;;19.53;13.70;;;14.90;99.90;;;;;;4910626;29;20450;-73
2022/09/25 11:30:05;;;;;;;18.37;14.30;;;14.90;99.90;;;;;;4910095;29;20463;-72
2022/09/25 11:32:39;;;;;;;20.83;13.70;;;14.80;99.90;;;;;;4910483;29;20889;-68
2022/09/25 11:35:22;;;;;;;18.43;13.90;;;14.90;99.90;;;;;;4909371;29;20498;-77
2022/09/25 11:38:03;;;;;;;16.80;13.00;;;15.00;99.90;;;;;;4894655;29;20460;-77
2022/09/25 11:43:37;;;;;;;17.20;12.70;;;15.10;99.90;;;;;;4874531;29;20420;-78
2022/09/25 11:46:12;;;;;;;16.00;12.40;;;15.20;99.90;;;;;;4871901;29;20449;-77
2022/09/25 11:48:50;;;;;;;14.03;11.23;;;15.30;99.90;;;;;;4874422;29;20477;-78
2022/09/25 11:51:27;;;;;;;14.70;11.77;;;15.40;99.90;;;;;;4894026;29;20483;-77
2022/09/25 11:54:08;;;;;;;14.97;11.87;;;15.40;99.90;;;;;;4892787;29;20939;-77
2022/09/25 11:56:43;;;;;;;12.97;10.40;;;15.40;99.90;;;;;;4893408;29;21028;-79
2022/09/25 11:59:29;;;;;;;11.87;10.60;;;15.50;99.90;;;;;;4898039;29;20456;-79
2022/09/25 12:02:03;;;;;;;14.20;10.83;;;15.60;99.90;;;;;;4900270;29;20563;-78
2022/09/25 12:04:58;;;;;;;13.73;10.50;;;15.60;99.90;;;;;;4911750;29;20467;-77
2022/09/25 12:08:00;;;;;;;15.50;10.17;;;15.60;99.90;;;;;;4907898;29;20841;-79
2022/09/25 12:10:38;;;;;;;8.50;7.47;;;15.60;99.90;;;;;;4895294;29;20495;-75
2022/09/25 12:13:14;;;;;;;10.80;8.30;;;15.60;99.90;;;;;;4913170;29;20495;-79
2022/09/25 12:15:52;;;;;;;11.63;8.00;;;15.60;99.90;;;;;;4911901;29;20945;-76
2022/09/25 12:18:32;;;;;;;8.50;7.13;;;15.60;99.90;;;;;;4913185;29;20451;-79
2022/09/25 12:21:05;;;;;;;8.73;7.30;;;15.60;99.90;;;;;;4912518;29;20487;-74
2022/09/25 12:23:35;;;;;;;9.00;7.20;;;15.70;99.90;;;;;;4909843;29;20469;-74
2022/09/25 12:26:17;;;;;;;8.20;7.00;;;15.70;99.90;;;;;;4909330;29;20832;-75
2022/09/25 12:29:09;;;;;;;9.37;7.00;;;15.80;99.90;;;;;;4911071;29;20455;-78
2022/09/25 12:31:51;;;;;;;12.03;7.40;;;15.70;99.90;;;;;;4913135;29;20490;-79
2022/09/25 12:34:26;;;;;;;9.00;6.63;;;15.70;99.90;;;;;;4912443;29;20452;-78
2022/09/25 12:36:57;;;;;;;7.70;6.83;;;15.70;99.90;;;;;;4913058;29;20467;-78
2022/09/25 12:39:32;;;;;;;18.83;7.37;;;15.70;99.90;;;;;;4913034;29;20471;-79
2022/09/25 12:42:07;;;;;;;7.90;5.70;;;15.70;99.90;;;;;;4912793;29;20568;-79
2022/09/25 12:44:44;;;;;;;13.07;6.30;;;15.70;99.90;;;;;;4912379;29;20469;-79
2022/09/25 12:47:20;;;;;;;7.30;5.60;;;15.60;99.90;;;;;;4913858;29;20444;-78
2022/09/25 12:49:55;;;;;;;10.37;6.50;;;15.60;99.90;;;;;;4912866;29;20467;-79
2022/09/25 12:52:27;;;;;;;7.93;6.50;;;15.70;99.90;;;;;;4912636;29;20499;-75
2022/09/25 12:55:01;;;;;;;7.50;6.80;;;15.70;99.90;;;;;;4912023;29;20473;-78
2022/09/25 12:57:37;;;;;;;9.47;6.87;;;15.80;99.90;;;;;;4914922;29;20994;-77
2022/09/25 13:00:06;;;;;;;6.40;5.80;;;16.00;99.90;;;;;;4917770;29;20484;-78
2022/09/25 13:02:39;;;;;;;7.37;6.33;;;16.10;99.90;;;;;;4916946;29;20491;-78
2022/09/25 13:05:12;;;;;;;6.70;5.80;;;16.30;99.90;;;;;;4916310;29;20447;-79
2022/09/25 13:07:45;;;;;;;8.10;6.57;;;16.30;99.90;;;;;;4916938;29;20463;-77
2022/09/25 13:10:23;;;;;;;10.27;7.00;;;16.40;99.90;;;;;;4917817;29;20467;-78
2022/09/25 13:12:55;;;;;;;8.67;6.43;;;16.50;99.90;;;;;;4917507;29;20501;-78
2022/09/25 13:15:26;;;;;;;8.43;6.70;;;16.50;99.90;;;;;;4916238;29;20463;-78
2022/09/25 13:17:54;;;;;;;8.43;6.20;;;16.40;99.90;;;;;;4915667;29;20458;-81
2022/09/25 13:20:52;;;;;;;9.83;6.67;;;16.30;99.90;;;;;;4915550;29;20470;-77
2022/09/25 13:23:32;;;;;;;6.50;5.90;;;16.40;99.90;;;;;;4914896;29;20450;-79
2022/09/25 13:26:08;;;;;;;7.20;6.00;;;16.30;99.90;;;;;;4914320;29;20451;-79
2022/09/25 13:28:39;;;;;;;10.83;6.63;;;16.20;99.90;;;;;;4914539;29;20833;-78
2022/09/25 13:31:09;;;;;;;7.90;6.30;;;16.00;99.90;;;;;;4914827;29;20487;-78
2022/09/25 13:33:48;;;;;;;8.70;6.40;;;15.90;99.90;;;;;;4914384;29;20595;-79
2022/09/25 13:36:29;;;;;;;8.60;7.00;;;15.90;99.90;;;;;;4913271;29;21265;-78
2022/09/25 13:41:54;;;;;;;7.03;6.27;;;16.10;99.90;;;;;;4914141;29;20477;-79
2022/09/25 13:45:06;;;;;;;5.97;5.37;;;16.30;99.90;;;;;;4913383;29;20499;-78
2022/09/25 13:47:51;;;;;;;5.63;5.07;;;16.50;99.90;;;;;;4913970;29;20466;-78
2022/09/25 13:50:32;;;;;;;9.50;5.10;;;16.80;99.90;;;;;;4913401;29;20558;-79
2022/09/25 13:53:19;;;;;;;4.17;3.77;;;16.90;99.90;;;;;;4914150;29;20485;-78
2022/09/25 13:56:13;;;;;;;10.40;5.13;;;16.90;99.90;;;;;;4911945;29;20502;-78
2022/09/25 13:59:24;;;;;;;5.30;4.27;;;16.90;99.90;;;;;;4914206;29;20471;-79
2022/09/25 14:01:58;;;;;;;6.57;4.70;;;16.80;99.90;;;;;;4855721;29;20959;-78
2022/09/25 14:04:35;;;;;;;4.90;3.97;;;16.70;99.90;;;;;;4856803;29;20489;-78
2022/09/25 14:07:24;;;;;;;5.00;4.50;;;16.60;99.90;;;;;;4893723;29;20974;-79
2022/09/25 14:09:55;;;;;;;4.90;4.20;;;16.50;99.90;;;;;;4911679;29;20534;-79
2022/09/25 14:12:31;;;;;;;4.67;4.23;;;16.50;99.90;;;;;;4915580;29;20480;-80
2022/09/25 14:15:01;;;;;;;4.93;4.43;;;16.40;99.90;;;;;;4915282;29;20465;-76
2022/09/25 14:17:32;;;;;;;6.70;6.00;;;16.30;99.90;;;;;;4916405;29;20456;-80
2022/09/25 14:20:00;;;;;;;5.70;5.20;;;16.30;99.90;;;;;;4916014;29;20535;-77
2022/09/25 14:22:35;;;;;;;5.80;5.30;;;16.30;99.90;;;;;;4914501;29;20479;-77
2022/09/25 14:25:02;;;;;;;7.00;6.20;;;16.30;99.90;;;;;;4915139;29;20546;-79
2022/09/25 14:27:29;;;;;;;7.70;6.90;;;16.30;99.90;;;;;;4915575;29;20475;-80
2022/09/25 14:30:10;;;;;;;6.50;5.80;;;16.20;99.90;;;;;;4915351;29;20459;-76
2022/09/25 14:32:49;;;;;;;6.47;5.80;;;16.10;99.90;;;;;;4914991;29;20499;-78
2022/09/25 14:35:35;;;;;;;5.70;5.10;;;16.00;99.90;;;;;;4914557;29;20451;-78
2022/09/25 14:38:17;;;;;;;5.90;5.27;;;16.00;99.90;;;;;;4915569;29;20458;-76
2022/09/25 14:40:56;;;;;;;16.63;12.13;;;16.00;99.90;;;;;;4915416;29;20491;-78
2022/09/25 14:43:49;;;;;;;14.63;13.03;;;16.00;99.90;;;;;;4914643;29;20427;-80
2022/09/25 14:46:18;;;;;;;11.33;10.33;;;15.90;99.90;;;;;;4913485;29;20550;-77
2022/09/25 14:48:50;;;;;;;24.83;17.30;;;15.90;99.90;;;;;;4914271;29;20502;-77
2022/09/25 14:51:22;;;;;;;14.60;11.90;;;15.80;99.90;;;;;;4914518;29;20479;-76
2022/09/25 14:53:53;;;;;;;11.77;10.63;;;15.80;99.90;;;;;;4914014;29;20502;-78
2022/09/25 14:56:23;;;;;;;8.70;7.90;;;15.70;99.90;;;;;;4915189;29;20487;-78
2022/09/25 14:58:55;;;;;;;9.70;8.80;;;15.70;99.90;;;;;;4914543;29;20459;-74
2022/09/25 15:01:26;;;;;;;11.00;9.17;;;15.70;99.90;;;;;;4913339;29;20487;-79
2022/09/25 15:03:58;;;;;;;9.30;7.67;;;15.60;99.90;;;;;;4914958;29;20459;-77
2022/09/25 15:06:27;;;;;;;8.47;7.70;;;15.60;99.90;;;;;;4912687;29;20455;-75
2022/09/25 15:08:55;;;;;;;7.20;6.50;;;15.60;99.90;;;;;;4903082;29;20489;-74
2022/09/25 15:11:25;;;;;;;6.67;5.93;;;15.50;99.90;;;;;;4901457;29;20480;-75
2022/09/25 15:13:52;;;;;;;7.27;6.67;;;15.50;99.90;;;;;;4907363;29;20499;-75
2022/09/25 15:19:21;;;;;;;10.33;7.97;;;15.50;99.90;;;;;;4866825;29;20797;-75
2022/09/25 15:21:50;;;;;;;8.27;7.37;;;15.40;99.90;;;;;;4911267;29;20483;-76
2022/09/25 15:24:19;;;;;;;11.97;10.87;;;15.40;99.90;;;;;;4910554;29;20510;-77
2022/09/25 15:26:50;;;;;;;9.47;8.40;;;15.40;99.90;;;;;;4910976;29;20471;-76
2022/09/25 15:29:20;;;;;;;10.23;8.90;;;15.40;99.90;;;;;;4911301;29;20463;-75
2022/09/25 15:31:50;;;;;;;10.10;9.10;;;15.30;99.90;;;;;;4910934;29;20495;-75
2022/09/25 15:34:23;;;;;;;10.70;9.10;;;15.30;99.90;;;;;;4910558;29;20494;-75
2022/09/25 15:36:50;;;;;;;10.77;9.20;;;15.30;99.90;;;;;;4910412;29;20455;-75
2022/09/25 15:39:22;;;;;;;9.33;8.43;;;15.30;99.90;;;;;;4910106;29;20879;-75
2022/09/25 15:41:49;;;;;;;10.23;9.20;;;15.30;99.90;;;;;;4909466;29;20483;-75
2022/09/25 15:44:20;;;;;;;8.73;7.83;;;15.30;99.90;;;;;;4908073;29;20466;-76
2022/09/25 15:46:49;;;;;;;10.20;9.20;;;15.30;99.90;;;;;;4910009;29;20462;-75
2022/09/25 15:49:19;;;;;;;12.50;11.20;;;15.30;99.90;;;;;;4910098;29;20470;-75
2022/09/25 15:51:51;;;;;;;10.80;9.10;;;15.20;99.90;;;;;;4909316;29;20479;-75
2022/09/25 15:54:32;;;;;;;9.93;6.97;;;15.20;99.90;;;;;;4909180;29;20490;-76
2022/09/25 15:57:01;;;;;;;5.97;5.07;;;15.20;99.90;;;;;;4909353;29;21234;-75
2022/09/25 15:59:32;;;;;;;6.37;4.63;;;15.10;99.90;;;;;;4909354;29;20549;-75
2022/09/25 16:04:53;;;;;;;3.70;3.30;;;15.10;99.90;;;;;;4908974;29;20793;-75
2022/09/25 16:07:30;;;;;;;4.30;3.60;;;15.00;99.90;;;;;;4909457;29;20518;-75
2022/09/25 16:09:58;;;;;;;17.80;13.80;;;14.90;99.90;;;;;;4909504;29;20439;-75
2022/09/25 16:12:30;;;;;;;20.27;16.77;;;14.90;99.90;;;;;;4909566;29;20491;-76
2022/09/25 16:14:58;;;;;;;14.60;12.60;;;15.00;99.90;;;;;;4908997;29;20495;-76
2022/09/25 16:17:31;;;;;;;5.50;4.77;;;14.90;99.90;;;;;;4908388;29;20460;-77
2022/09/25 16:20:05;;;;;;;10.80;9.77;;;14.90;99.90;;;;;;4909971;29;20807;-76
2022/09/25 16:22:41;;;;;;;7.70;6.60;;;14.90;99.90;;;;;;4909175;29;20776;-76
2022/09/25 16:25:23;;;;;;;12.33;11.13;;;14.90;99.90;;;;;;4908466;29;21002;-77
2022/09/25 16:27:50;;;;;;;4.33;3.93;;;14.90;99.90;;;;;;4909394;29;20824;-76
2022/09/25 16:30:21;;;;;;;3.70;3.40;;;14.90;99.90;;;;;;4909443;29;20468;-76
2022/09/25 16:32:51;;;;;;;4.03;3.63;;;14.80;99.90;;;;;;4908439;29;20826;-76
2022/09/25 16:35:24;;;;;;;10.60;9.70;;;14.80;99.90;;;;;;4908434;29;20833;-76
2022/09/25 16:37:53;;;;;;;5.50;5.00;;;14.80;99.90;;;;;;4908691;29;20455;-76
2022/09/25 16:40:24;;;;;;;5.33;4.83;;;14.80;99.90;;;;;;4909309;29;20451;-77
2022/09/25 16:42:53;;;;;;;5.90;5.40;;;14.80;99.90;;;;;;4909565;29;20463;-76
2022/09/25 16:45:22;;;;;;;6.83;6.20;;;14.90;99.90;;;;;;4908486;29;20467;-76
2022/09/25 16:47:50;;;;;;;10.70;9.60;;;14.90;99.90;;;;;;4908865;29;20467;-76
2022/09/25 16:50:33;;;;;;;13.10;11.17;;;14.90;99.90;;;;;;4909259;29;20471;-76
2022/09/25 16:53:05;;;;;;;12.97;11.80;;;14.90;99.90;;;;;;4909244;29;20496;-78
2022/09/25 16:55:37;;;;;;;8.17;7.37;;;14.90;99.90;;;;;;4909632;29;20478;-77
2022/09/25 16:58:09;;;;;;;8.73;7.87;;;14.90;99.90;;;;;;4910972;29;20455;-75
2022/09/25 17:00:36;;;;;;;15.37;13.97;;;14.90;99.90;;;;;;4914156;29;20499;-77
2022/09/25 17:03:03;;;;;;;8.10;7.30;;;14.90;99.90;;;;;;4908995;29;20733;-74
2022/09/25 17:05:31;;;;;;;15.47;13.87;;;14.80;99.90;;;;;;4908588;29;20833;-76
2022/09/25 17:08:00;;;;;;;11.00;10.00;;;14.80;99.90;;;;;;4908878;29;20463;-76
2022/09/25 17:10:31;;;;;;;8.40;7.60;;;14.80;99.90;;;;;;4909235;29;20459;-76
2022/09/25 17:13:01;;;;;;;10.13;9.03;;;14.80;99.90;;;;;;4908901;29;20467;-76
2022/09/25 17:15:32;;;;;;;37.30;30.23;;;14.80;99.90;;;;;;4908690;29;20469;-76
2022/09/25 17:18:00;;;;;;;9.03;8.13;;;14.80;99.90;;;;;;4909423;29;20831;-77